createdAt,value
2019-05-11T00:01:41.395Z,1.67
2019-05-11T00:04:08.874Z,1.20
2019-05-11T00:06:36.464Z,1.37
2019-05-11T00:09:04.097Z,2.65
2019-05-11T00:11:31.737Z,2.53
2019-05-11T00:13:59.248Z,1.20
2019-05-11T00:16:26.753Z,1.30
2019-05-11T00:18:54.219Z,1.02
2019-05-11T00:21:21.727Z,1.17
2019-05-11T00:23:49.204Z,1.30
2019-05-11T00:26:16.663Z,1.00
2019-05-11T00:28:44.135Z,2.72
2019-05-11T00:31:12.552Z,1.45
2019-05-11T00:33:39.994Z,0.90
2019-05-11T00:36:07.544Z,1.00
2019-05-11T00:38:35.010Z,1.10
2019-05-11T00:41:02.474Z,0.90
2019-05-11T00:43:29.912Z,0.90
2019-05-11T00:45:57.380Z,1.50
2019-05-11T00:48:24.941Z,1.00
2019-05-11T00:50:53.110Z,1.20
2019-05-11T00:53:20.559Z,1.20
2019-05-11T00:55:48.000Z,1.00
2019-05-11T00:58:15.544Z,0.90
2019-05-11T01:00:43.021Z,1.10
2019-05-11T01:03:10.581Z,1.00
2019-05-11T01:05:38.079Z,0.90
2019-05-11T01:08:05.522Z,0.90
2019-05-11T01:10:41.568Z,1.10
2019-05-11T01:13:00.539Z,0.90
2019-05-11T01:15:30.212Z,1.00
2019-05-11T01:17:57.728Z,0.95
2019-05-11T01:20:25.298Z,1.00
2019-05-11T01:22:52.786Z,0.95
2019-05-11T01:25:20.347Z,0.80
2019-05-11T01:27:47.889Z,0.80
2019-05-11T01:30:15.389Z,1.00
2019-05-11T01:32:42.830Z,1.10
2019-05-11T01:35:10.276Z,1.15
2019-05-11T01:37:37.781Z,1.30
2019-05-11T01:40:05.252Z,1.30
2019-05-11T01:42:32.855Z,1.10
2019-05-11T01:45:00.343Z,0.80
2019-05-11T01:47:27.800Z,1.02
2019-05-11T01:49:55.249Z,0.90
2019-05-11T01:52:22.714Z,0.80
2019-05-11T01:54:50.188Z,1.00
2019-05-11T01:57:17.734Z,1.00
2019-05-11T01:59:45.399Z,1.12
2019-05-11T02:02:12.931Z,0.77
2019-05-11T02:04:40.463Z,1.00
2019-05-11T02:07:07.972Z,0.80
2019-05-11T02:09:35.425Z,1.02
2019-05-11T02:12:02.957Z,0.90
2019-05-11T02:14:30.479Z,1.17
2019-05-11T02:16:58.041Z,0.95
2019-05-11T02:19:25.523Z,1.20
2019-05-11T02:21:52.989Z,1.05
2019-05-11T02:24:20.448Z,0.80
2019-05-11T02:26:47.956Z,0.90
2019-05-11T02:29:15.396Z,1.10
2019-05-11T02:31:42.850Z,1.05
2019-05-11T02:34:10.308Z,1.02
2019-05-11T02:36:37.833Z,0.77
2019-05-11T02:39:05.309Z,1.00
2019-05-11T02:41:36.878Z,1.10
2019-05-11T02:44:00.451Z,1.80
2019-05-11T02:46:27.934Z,1.08
2019-05-11T02:48:55.406Z,1.00
2019-05-11T02:51:23.128Z,1.27
2019-05-11T02:53:50.772Z,1.30
2019-05-11T02:56:18.272Z,1.10
2019-05-11T02:58:45.738Z,1.15
2019-05-11T03:01:13.227Z,1.20
2019-05-11T03:03:40.717Z,1.48
2019-05-11T03:06:08.219Z,1.02
2019-05-11T03:08:35.766Z,1.20
2019-05-11T03:11:03.232Z,1.12
2019-05-11T03:13:30.697Z,1.12
2019-05-11T03:15:58.206Z,1.02
2019-05-11T03:18:25.870Z,1.70
2019-05-11T03:20:53.387Z,2.25
2019-05-11T03:23:20.991Z,1.60
2019-05-11T03:25:48.465Z,1.75
2019-05-11T03:28:15.941Z,1.50
2019-05-11T03:30:43.497Z,1.60
2019-05-11T03:33:10.954Z,1.00
2019-05-11T03:35:38.452Z,1.33
2019-05-11T03:38:05.910Z,1.40
2019-05-11T03:40:33.499Z,1.83
2019-05-11T03:43:01.881Z,1.35
2019-05-11T03:45:29.375Z,1.50
2019-05-11T03:47:56.834Z,1.30
2019-05-11T03:50:24.284Z,1.20
2019-05-11T03:52:51.781Z,1.30
2019-05-11T03:55:19.243Z,1.20
2019-05-11T03:57:46.735Z,1.10
2019-05-11T04:00:14.271Z,1.10
2019-05-11T04:02:41.728Z,1.70
2019-05-11T04:05:09.177Z,1.65
2019-05-11T04:07:36.626Z,1.60
2019-05-11T04:10:04.837Z,1.60
2019-05-11T04:12:35.272Z,1.83
2019-05-11T04:14:59.879Z,1.25
2019-05-11T04:17:27.349Z,1.85
2019-05-11T04:19:54.805Z,1.25
2019-05-11T04:22:22.253Z,1.12
2019-05-11T04:24:49.719Z,2.00
2019-05-11T04:27:19.643Z,1.40
2019-05-11T04:29:44.671Z,1.90
2019-05-11T04:32:12.159Z,1.75
2019-05-11T04:34:39.618Z,1.77
2019-05-11T04:37:07.193Z,1.30
2019-05-11T04:39:34.633Z,1.70
2019-05-11T04:42:02.105Z,1.30
2019-05-11T04:44:29.579Z,1.30
2019-05-11T04:46:57.061Z,1.60
2019-05-11T04:49:24.543Z,1.95
2019-05-11T04:51:52.021Z,2.62
2019-05-11T04:54:19.491Z,1.35
2019-05-11T04:56:46.954Z,1.48
2019-05-11T04:59:14.443Z,1.05
2019-05-11T05:01:41.920Z,1.87
2019-05-11T05:04:14.433Z,1.60
2019-05-11T05:06:38.947Z,1.67
2019-05-11T05:09:05.144Z,1.48
2019-05-11T05:11:36.640Z,2.15
2019-05-11T05:14:01.866Z,1.20
2019-05-11T05:16:26.951Z,1.55
2019-05-11T05:18:54.559Z,1.62
2019-05-11T05:21:22.007Z,1.35
2019-05-11T05:23:49.449Z,1.30
2019-05-11T05:26:16.897Z,2.05
2019-05-11T05:28:45.886Z,1.20
2019-05-11T05:31:11.826Z,1.52
2019-05-11T05:33:39.268Z,1.12
2019-05-11T05:36:06.733Z,1.45
2019-05-11T05:38:34.180Z,2.00
2019-05-11T05:41:01.757Z,1.70
2019-05-11T05:43:29.252Z,1.27
2019-05-11T05:45:56.792Z,1.23
2019-05-11T05:48:24.243Z,1.30
2019-05-11T05:50:51.815Z,1.67
2019-05-11T05:53:19.308Z,1.37
2019-05-11T05:55:46.762Z,1.70
2019-05-11T05:58:14.248Z,1.52
2019-05-11T06:00:41.707Z,1.80
2019-05-11T06:03:09.201Z,1.50
2019-05-11T06:05:36.630Z,1.70
2019-05-11T06:08:04.137Z,1.17
2019-05-11T06:10:31.595Z,1.65
2019-05-11T06:12:59.073Z,1.40
2019-05-11T06:15:27.212Z,1.45
2019-05-11T06:17:54.691Z,1.95
2019-05-11T06:20:22.228Z,1.77
2019-05-11T06:22:50.297Z,1.90
2019-05-11T06:25:17.958Z,1.55
2019-05-11T06:27:45.403Z,1.42
2019-05-11T06:30:13.000Z,1.60
2019-05-11T06:32:40.447Z,1.70
2019-05-11T06:35:07.938Z,2.50
2019-05-11T06:37:35.466Z,2.33
2019-05-11T06:40:02.977Z,1.12
2019-05-11T06:42:30.853Z,1.83
2019-05-11T06:44:58.309Z,1.48
2019-05-11T06:47:25.764Z,1.50
2019-05-11T06:49:53.260Z,1.65
2019-05-11T06:52:20.889Z,1.45
2019-05-11T06:54:48.367Z,1.27
2019-05-11T06:57:15.829Z,1.35
2019-05-11T06:59:43.334Z,1.60
2019-05-11T07:02:10.932Z,1.55
2019-05-11T07:04:38.452Z,1.83
2019-05-11T07:07:06.023Z,1.40
2019-05-11T07:09:33.482Z,1.40
2019-05-11T07:12:01.083Z,1.02
2019-05-11T07:14:28.539Z,2.35
2019-05-11T07:16:56.024Z,2.47
2019-05-11T07:19:23.596Z,1.12
2019-05-11T07:21:51.043Z,1.67
2019-05-11T07:24:18.548Z,2.03
2019-05-11T07:26:46.003Z,1.92
2019-05-11T07:29:13.554Z,2.17
2019-05-11T07:31:41.017Z,1.87
2019-05-11T07:34:08.463Z,1.45
2019-05-11T07:36:35.923Z,1.60
2019-05-11T07:39:03.393Z,2.20
2019-05-11T07:41:30.890Z,1.90
2019-05-11T07:43:58.969Z,1.77
2019-05-11T07:46:25.895Z,1.40
2019-05-11T07:48:53.433Z,1.20
2019-05-11T07:51:20.874Z,1.50
2019-05-11T07:53:48.743Z,1.50
2019-05-11T07:56:15.880Z,1.35
2019-05-11T07:58:43.365Z,1.42
2019-05-11T08:01:10.859Z,1.15
2019-05-11T08:03:39.011Z,1.20
2019-05-11T08:06:05.814Z,0.90
2019-05-11T08:08:33.258Z,1.10
2019-05-11T08:11:00.720Z,0.77
2019-05-11T08:13:28.402Z,0.70
2019-05-11T08:15:57.766Z,0.85
2019-05-11T08:18:23.361Z,0.80
2019-05-11T08:20:50.912Z,0.77
2019-05-11T08:23:18.522Z,0.80
2019-05-11T08:25:48.450Z,0.90
2019-05-11T08:28:13.503Z,0.90
2019-05-11T08:30:40.994Z,1.33
2019-05-11T08:33:08.692Z,1.17
2019-05-11T08:35:36.022Z,4.85
2019-05-11T08:38:03.462Z,1.00
2019-05-11T08:40:30.990Z,0.70
2019-05-11T08:42:58.503Z,0.75
2019-05-11T08:45:28.010Z,0.90
2019-05-11T08:47:53.472Z,0.98
2019-05-11T08:50:20.942Z,0.80
2019-05-11T08:57:42.557Z,1.20
2019-05-11T09:00:12.538Z,0.80
2019-05-11T09:02:40.011Z,1.25
2019-05-11T09:05:08.166Z,0.90
2019-05-11T09:07:34.979Z,0.80
2019-05-11T09:10:02.448Z,0.88
2019-05-11T09:12:29.927Z,1.05
2019-05-11T09:14:58.148Z,0.90
2019-05-11T09:17:25.766Z,1.00
2019-05-11T09:19:53.217Z,0.90
2019-05-11T09:22:20.741Z,1.00
2019-05-11T09:24:48.190Z,0.80
2019-05-11T09:27:18.193Z,0.90
2019-05-11T09:29:43.479Z,1.48
2019-05-11T09:32:11.018Z,1.40
2019-05-11T09:34:38.543Z,1.33
2019-05-11T09:37:07.909Z,1.02
2019-05-11T09:39:33.576Z,0.90
2019-05-11T09:42:01.153Z,1.00
2019-05-11T09:44:28.995Z,1.10
2019-05-11T09:46:59.934Z,0.80
2019-05-11T09:49:23.732Z,1.10
2019-05-11T09:51:51.242Z,0.98
2019-05-11T09:54:18.878Z,0.80
2019-05-11T09:56:48.478Z,0.90
2019-05-11T09:59:14.048Z,1.33
2019-05-11T10:01:41.492Z,1.00
2019-05-11T10:04:09.176Z,0.90
2019-05-11T10:06:38.621Z,0.93
2019-05-11T10:09:03.971Z,0.70
2019-05-11T10:11:31.649Z,1.00
2019-05-11T10:13:59.292Z,1.27
2019-05-11T10:16:28.052Z,0.70
2019-05-11T10:18:54.262Z,0.70
2019-05-11T10:21:21.810Z,1.10
2019-05-11T10:23:49.284Z,0.70
2019-05-11T10:26:18.766Z,0.90
2019-05-11T10:28:44.919Z,1.10
2019-05-11T10:31:12.376Z,0.73
2019-05-11T10:33:39.891Z,1.00
2019-05-11T10:36:08.194Z,0.85
2019-05-11T10:38:34.853Z,0.90
2019-05-11T10:41:02.546Z,0.70
2019-05-11T10:43:30.235Z,0.90
2019-05-11T10:45:58.762Z,0.80
2019-05-11T10:48:25.386Z,1.08
2019-05-11T10:50:52.839Z,2.00
2019-05-11T10:53:20.431Z,0.80
2019-05-11T10:55:48.077Z,0.60
2019-05-11T10:58:18.170Z,0.85
2019-05-11T11:00:43.018Z,1.20
2019-05-11T11:03:10.499Z,1.12
2019-05-11T11:05:38.595Z,0.90
2019-05-11T11:08:08.099Z,1.33
2019-05-11T11:10:33.228Z,0.80
2019-05-11T11:13:00.679Z,1.17
2019-05-11T11:15:28.824Z,1.45
2019-05-11T11:17:57.768Z,0.90
2019-05-11T11:20:23.482Z,0.93
2019-05-11T11:22:50.927Z,1.00
2019-05-11T11:25:18.386Z,0.90
2019-05-11T11:27:45.849Z,0.93
2019-05-11T11:30:13.351Z,0.70
2019-05-11T11:32:40.803Z,0.93
2019-05-11T11:35:08.628Z,0.80
2019-05-11T11:37:35.761Z,0.90
2019-05-11T11:40:03.208Z,0.98
2019-05-11T11:42:30.774Z,0.85
2019-05-11T11:47:25.363Z,1.00
2019-05-11T11:49:52.862Z,1.00
2019-05-11T11:52:20.442Z,1.02
2019-05-11T11:57:14.934Z,0.90
2019-05-11T11:59:42.436Z,0.90
2019-05-11T12:02:10.053Z,1.08
2019-05-11T12:04:38.841Z,0.90
2019-05-11T12:07:05.028Z,1.00
2019-05-11T12:09:32.621Z,1.12
2019-05-11T12:12:00.070Z,0.80
2019-05-11T12:14:28.304Z,0.70
2019-05-11T12:17:04.932Z,0.90
2019-05-11T12:19:23.298Z,0.98
2019-05-11T12:21:50.826Z,0.88
2019-05-11T12:24:18.844Z,0.73
2019-05-11T12:26:48.102Z,0.80
2019-05-11T12:29:13.400Z,0.90
2019-05-11T12:31:40.993Z,0.90
2019-05-11T12:34:08.862Z,0.60
2019-05-11T12:36:35.970Z,0.80
2019-05-11T12:39:03.444Z,0.70
2019-05-11T12:41:30.925Z,0.70
2019-05-11T12:43:58.396Z,0.80
2019-05-11T12:46:27.660Z,0.80
2019-05-11T12:48:56.559Z,1.10
2019-05-11T12:51:20.961Z,0.80
2019-05-11T12:53:49.949Z,0.70
2019-05-11T12:56:18.967Z,0.70
2019-05-11T12:58:44.923Z,0.80
2019-05-11T13:01:12.388Z,0.70
2019-05-11T13:03:39.844Z,0.75
2019-05-11T13:06:08.195Z,0.60
2019-05-11T13:08:34.826Z,0.80
2019-05-11T13:11:02.275Z,0.70
2019-05-11T13:13:29.731Z,0.60
2019-05-11T13:15:58.496Z,0.90
2019-05-11T13:18:24.716Z,0.68
2019-05-11T13:20:52.182Z,1.05
2019-05-11T13:23:19.627Z,0.80
2019-05-11T13:25:48.002Z,0.70
2019-05-11T13:28:14.593Z,0.90
2019-05-11T13:30:42.069Z,0.70
2019-05-11T13:33:09.685Z,0.70
2019-05-11T13:35:37.641Z,1.02
2019-05-11T13:38:04.747Z,0.80
2019-05-11T13:40:32.214Z,1.10
2019-05-11T13:43:00.556Z,0.95
2019-05-11T13:45:28.338Z,0.75
2019-05-11T13:47:58.857Z,0.80
2019-05-11T13:50:23.054Z,0.80
2019-05-11T13:52:50.507Z,1.10
2019-05-11T13:55:18.409Z,0.88
2019-05-11T13:57:45.583Z,0.70
2019-05-11T14:00:13.099Z,1.15
2019-05-11T14:02:40.724Z,0.95
2019-05-11T14:05:08.740Z,0.77
2019-05-11T14:07:37.918Z,0.73
2019-05-11T14:10:03.312Z,1.00
2019-05-11T14:12:30.754Z,0.70
2019-05-11T14:14:58.292Z,1.50
2019-05-11T14:17:28.652Z,1.10
2019-05-11T14:19:53.388Z,0.75
2019-05-11T14:22:20.872Z,1.08
2019-05-11T14:24:48.545Z,0.70
2019-05-11T14:27:17.797Z,0.88
2019-05-11T14:29:43.864Z,1.00
2019-05-11T14:32:11.341Z,1.17
2019-05-11T14:34:38.889Z,0.70
2019-05-11T14:37:08.830Z,0.90
2019-05-11T14:39:34.992Z,1.20
2019-05-11T14:42:02.623Z,0.88
2019-05-11T14:44:30.199Z,1.60
2019-05-11T14:46:59.290Z,0.90
2019-05-11T14:49:27.488Z,1.20
2019-05-11T14:51:52.685Z,0.70
2019-05-11T14:54:20.239Z,0.90
2019-05-11T14:56:48.144Z,1.08
2019-05-11T14:59:15.262Z,0.80
2019-05-11T15:01:42.734Z,1.33
2019-05-11T15:04:10.201Z,0.75
2019-05-11T15:06:38.583Z,1.00
2019-05-11T15:09:07.618Z,1.10
2019-05-11T15:11:32.728Z,2.15
2019-05-11T15:14:00.225Z,1.77
2019-05-11T15:16:28.582Z,1.40
2019-05-11T15:18:56.044Z,1.00
2019-05-11T15:21:23.525Z,0.70
2019-05-11T15:23:50.999Z,1.02
2019-05-11T15:26:18.900Z,0.93
2019-05-11T15:28:48.594Z,0.60
2019-05-11T15:31:14.646Z,0.90
2019-05-11T15:33:42.087Z,0.80
2019-05-11T15:36:09.679Z,0.90
2019-05-11T15:38:37.881Z,0.70
2019-05-11T15:41:04.698Z,0.82
2019-05-11T15:43:32.160Z,0.68
2019-05-11T15:45:59.670Z,1.10
2019-05-11T15:48:27.427Z,0.80
2019-05-11T15:50:54.959Z,0.90
2019-05-11T15:53:22.438Z,0.70
2019-05-11T15:55:49.943Z,1.12
2019-05-11T15:58:21.443Z,0.85
2019-05-11T16:00:44.939Z,1.33
2019-05-11T16:03:12.419Z,0.93
2019-05-11T16:05:41.118Z,0.80
2019-05-11T16:08:08.593Z,0.80
2019-05-11T16:10:38.241Z,0.70
2019-05-11T16:13:03.609Z,1.00
2019-05-11T16:15:31.065Z,0.70
2019-05-11T16:17:59.631Z,1.40
2019-05-11T16:20:28.593Z,0.95
2019-05-11T16:22:54.704Z,1.40
2019-05-11T16:25:22.331Z,0.80
2019-05-11T16:27:49.807Z,1.00
2019-05-11T16:30:20.825Z,1.05
2019-05-11T16:32:44.764Z,1.35
2019-05-11T16:35:12.256Z,1.30
2019-05-11T16:37:39.686Z,1.37
2019-05-11T16:40:07.135Z,1.00
2019-05-11T16:42:34.755Z,0.80
2019-05-11T16:45:02.254Z,0.80
2019-05-11T16:47:29.706Z,0.80
2019-05-11T16:49:57.993Z,1.00
2019-05-11T16:52:24.863Z,0.70
2019-05-11T16:54:52.336Z,0.80
2019-05-11T16:57:19.804Z,0.90
2019-05-11T16:59:48.365Z,0.90
2019-05-11T17:02:14.803Z,1.05
2019-05-11T17:04:42.266Z,0.70
2019-05-11T17:07:09.762Z,0.90
2019-05-11T17:09:37.857Z,1.30
2019-05-11T17:12:04.697Z,1.00
2019-05-11T17:14:32.174Z,1.02
2019-05-11T17:16:59.624Z,0.80
2019-05-11T17:34:09.548Z,2.85
2019-05-11T17:36:37.009Z,0.77
2019-05-11T17:39:04.493Z,0.90
2019-05-11T17:41:31.943Z,1.05
2019-05-11T17:43:59.444Z,1.10
2019-05-11T17:46:27.909Z,1.33
2019-05-11T17:48:54.561Z,1.42
2019-05-11T17:51:25.024Z,1.27
2019-05-11T17:53:49.499Z,1.30
2019-05-11T17:56:16.950Z,1.15
2019-05-11T17:58:44.464Z,1.92
2019-05-11T18:01:11.993Z,1.12
2019-05-11T18:03:39.503Z,1.80
2019-05-11T18:06:08.555Z,1.48
2019-05-11T18:08:34.552Z,2.05
2019-05-11T18:11:02.003Z,1.50
2019-05-11T18:13:29.504Z,1.00
2019-05-11T18:15:57.788Z,1.37
2019-05-11T18:18:24.450Z,1.10
2019-05-11T18:20:51.926Z,1.27
2019-05-11T18:23:19.395Z,1.00
2019-05-11T18:25:47.976Z,1.98
2019-05-11T18:28:14.489Z,1.23
2019-05-11T18:30:41.963Z,1.70
2019-05-11T18:33:09.526Z,0.90
2019-05-11T18:35:37.011Z,1.30
2019-05-11T18:38:04.563Z,1.23
2019-05-11T18:40:32.056Z,1.98
2019-05-11T18:42:59.518Z,1.95
2019-05-11T18:45:28.735Z,1.40
2019-05-11T18:47:54.499Z,1.70
2019-05-11T18:50:30.587Z,2.75
2019-05-11T18:52:49.692Z,1.70
2019-05-11T18:55:18.887Z,1.40
2019-05-11T18:57:44.651Z,3.33
2019-05-11T19:00:12.128Z,1.10
2019-05-11T19:02:39.630Z,1.00
2019-05-11T19:05:07.156Z,1.42
2019-05-11T19:07:34.667Z,1.98
2019-05-11T19:10:02.122Z,1.80
2019-05-11T19:12:29.583Z,1.77
2019-05-11T19:14:58.707Z,2.60
2019-05-11T19:17:24.544Z,3.50
2019-05-11T19:19:52.055Z,2.87
2019-05-11T19:22:19.521Z,1.73
2019-05-11T19:24:47.585Z,1.50
2019-05-11T19:27:14.481Z,1.58
2019-05-11T19:29:41.955Z,1.15
2019-05-11T19:32:11.178Z,1.73
2019-05-11T19:34:38.859Z,1.55
2019-05-11T19:37:04.504Z,1.92
2019-05-11T19:39:31.961Z,1.45
2019-05-11T19:41:59.414Z,1.35
2019-05-11T19:44:27.976Z,1.30
2019-05-11T19:46:54.416Z,1.10
2019-05-11T19:49:21.922Z,1.20
2019-05-11T19:51:49.382Z,1.45
2019-05-11T19:54:18.613Z,1.60
2019-05-11T19:56:44.362Z,4.10
2019-05-11T19:59:11.857Z,4.12
2019-05-11T20:01:39.320Z,2.70
2019-05-11T20:04:08.267Z,2.83
2019-05-11T20:06:34.400Z,3.37
2019-05-11T20:09:01.894Z,2.22
2019-05-11T20:11:29.354Z,2.80
2019-05-11T20:13:58.828Z,2.40
2019-05-11T20:16:24.322Z,2.75
2019-05-11T20:18:51.769Z,1.80
2019-05-11T20:21:22.798Z,1.80
2019-05-11T20:23:48.507Z,2.00
2019-05-11T20:26:14.988Z,2.35
2019-05-11T20:28:42.445Z,1.98
2019-05-11T20:31:09.911Z,2.17
2019-05-11T20:33:38.490Z,2.47
2019-05-11T20:36:04.995Z,2.83
2019-05-11T20:38:32.551Z,1.75
2019-05-11T20:41:00.398Z,3.47
2019-05-11T20:43:28.131Z,2.72
2019-05-11T20:45:56.246Z,2.85
2019-05-11T20:48:23.064Z,2.45
2019-05-11T20:50:50.519Z,1.98
2019-05-11T20:53:18.307Z,2.03
2019-05-11T20:55:47.633Z,3.72
2019-05-11T20:58:13.223Z,2.90
2019-05-11T21:00:40.734Z,2.60
2019-05-11T21:03:08.296Z,2.00
2019-05-11T21:05:35.775Z,2.22
2019-05-11T21:08:03.222Z,1.80
2019-05-11T21:10:31.583Z,1.75
2019-05-11T21:12:59.048Z,2.87
2019-05-11T21:15:28.112Z,2.42
2019-05-11T21:17:54.241Z,1.80
2019-05-11T21:20:21.732Z,2.10
2019-05-11T21:22:49.215Z,2.10
2019-05-11T21:25:18.180Z,2.20
2019-05-11T21:27:44.192Z,2.45
2019-05-11T21:30:11.678Z,2.90
2019-05-11T21:32:39.206Z,2.40
2019-05-11T21:35:08.822Z,3.15
2019-05-11T21:37:34.151Z,2.28
2019-05-11T21:40:01.603Z,2.25
2019-05-11T21:42:29.075Z,2.58
2019-05-11T21:44:58.113Z,2.80
2019-05-11T21:47:24.081Z,3.42
2019-05-11T21:49:51.630Z,3.90
2019-05-11T21:52:19.118Z,4.80
2019-05-11T21:54:48.964Z,4.12
2019-05-11T21:57:14.179Z,4.15
2019-05-11T21:59:41.671Z,5.35
2019-05-11T22:02:11.091Z,4.22
2019-05-11T22:04:38.754Z,3.35
2019-05-11T22:07:04.351Z,4.43
2019-05-11T22:09:31.894Z,3.97
2019-05-11T22:11:59.357Z,4.03
2019-05-11T22:14:29.694Z,4.90
2019-05-11T22:16:54.407Z,5.22
2019-05-11T22:19:21.931Z,4.82
2019-05-11T22:21:49.639Z,4.75
2019-05-11T22:24:17.963Z,4.80
2019-05-11T22:26:44.382Z,4.65
2019-05-11T22:29:11.855Z,3.53
2019-05-11T22:31:41.891Z,3.92
2019-05-11T22:34:08.887Z,4.00
2019-05-11T22:36:34.528Z,3.75
2019-05-11T22:39:02.033Z,3.60
2019-05-11T22:41:29.555Z,4.12
2019-05-11T22:43:57.049Z,4.43
2019-05-11T22:46:24.510Z,5.07
2019-05-11T22:48:51.963Z,3.45
2019-05-11T22:51:19.511Z,4.68
2019-05-11T22:53:48.072Z,4.90
2019-05-11T22:56:14.589Z,4.68
2019-05-11T22:58:42.045Z,5.35
2019-05-11T23:01:09.537Z,4.87
2019-05-11T23:03:38.318Z,4.57
2019-05-11T23:06:04.564Z,3.87
2019-05-11T23:08:32.096Z,5.10
2019-05-11T23:10:59.591Z,4.85
2019-05-11T23:13:27.891Z,3.75
2019-05-11T23:15:54.712Z,5.50
2019-05-11T23:18:22.193Z,4.40
2019-05-11T23:20:49.717Z,4.87
2019-05-11T23:23:17.859Z,6.00
2019-05-11T23:25:44.758Z,3.80
2019-05-11T23:28:12.206Z,3.70
2019-05-11T23:30:39.739Z,4.37
2019-05-11T23:33:07.946Z,4.57
2019-05-11T23:35:34.721Z,3.65
2019-05-11T23:38:02.197Z,5.10
2019-05-11T23:40:29.687Z,4.37
2019-05-11T23:45:31.966Z,4.80
2019-05-11T23:47:59.532Z,5.75
2019-05-11T23:50:28.173Z,4.93
2019-05-11T23:53:05.950Z,6.03
2019-05-11T23:55:22.316Z,4.75
2019-05-11T23:57:50.608Z,5.37
